sensor_id;sensor_type;location;lat;lon;timestamp;P1;durP1;ratioP1;P2;durP2;ratioP2
22026;SDS011;11177;50.966;10.070;2023-01-10T00:00:21;7.38;;;2.90;;
22026;SDS011;11177;50.966;10.070;2023-01-10T00:02:49;5.90;;;2.70;;
22026;SDS011;11177;50.966;10.070;2023-01-10T00:05:17;7.45;;;2.88;;
22026;SDS011;11177;50.966;10.070;2023-01-10T00:07:44;6.20;;;2.90;;
22026;SDS011;11177;50.966;10.070;2023-01-10T00:10:11;4.50;;;2.40;;
22026;SDS011;11177;50.966;10.070;2023-01-10T00:12:39;5.93;;;2.60;;
22026;SDS011;11177;50.966;10.070;2023-01-10T00:15:25;7.18;;;2.88;;
22026;SDS011;11177;50.966;10.070;2023-01-10T00:17:51;3.97;;;2.30;;
22026;SDS011;11177;50.966;10.070;2023-01-10T00:20:19;5.25;;;2.22;;
22026;SDS011;11177;50.966;10.070;2023-01-10T00:22:45;4.25;;;2.30;;
22026;SDS011;11177;50.966;10.070;2023-01-10T00:25:12;3.50;;;2.30;;
22026;SDS011;11177;50.966;10.070;2023-01-10T00:27:39;3.65;;;2.20;;
22026;SDS011;11177;50.966;10.070;2023-01-10T00:30:06;5.90;;;2.15;;
22026;SDS011;11177;50.966;10.070;2023-01-10T00:32:43;3.45;;;2.33;;
22026;SDS011;11177;50.966;10.070;2023-01-10T00:35:11;4.15;;;1.95;;
22026;SDS011;11177;50.966;10.070;2023-01-10T00:37:39;3.67;;;2.10;;
22026;SDS011;11177;50.966;10.070;2023-01-10T00:40:06;5.55;;;2.22;;
22026;SDS011;11177;50.966;10.070;2023-01-10T00:42:35;6.63;;;2.28;;
22026;SDS011;11177;50.966;10.070;2023-01-10T00:45:21;4.75;;;2.03;;
22026;SDS011;11177;50.966;10.070;2023-01-10T00:47:50;6.88;;;2.70;;
22026;SDS011;11177;50.966;10.070;2023-01-10T00:50:17;5.70;;;2.45;;
22026;SDS011;11177;50.966;10.070;2023-01-10T00:52:44;5.90;;;2.58;;
22026;SDS011;11177;50.966;10.070;2023-01-10T00:55:12;4.22;;;2.33;;
22026;SDS011;11177;50.966;10.070;2023-01-10T00:57:38;4.85;;;2.65;;
22026;SDS011;11177;50.966;10.070;2023-01-10T01:00:05;4.47;;;2.35;;
22026;SDS011;11177;50.966;10.070;2023-01-10T01:02:34;4.38;;;1.98;;
22026;SDS011;11177;50.966;10.070;2023-01-10T01:05:02;4.90;;;2.05;;
22026;SDS011;11177;50.966;10.070;2023-01-10T01:07:29;5.28;;;2.15;;
22026;SDS011;11177;50.966;10.070;2023-01-10T01:09:56;4.93;;;2.17;;
22026;SDS011;11177;50.966;10.070;2023-01-10T01:12:41;5.55;;;2.05;;
22026;SDS011;11177;50.966;10.070;2023-01-10T01:15:08;5.72;;;2.30;;
22026;SDS011;11177;50.966;10.070;2023-01-10T01:17:35;5.43;;;2.40;;
22026;SDS011;11177;50.966;10.070;2023-01-10T01:20:02;5.22;;;2.05;;
22026;SDS011;11177;50.966;10.070;2023-01-10T01:22:29;4.88;;;2.50;;
22026;SDS011;11177;50.966;10.070;2023-01-10T01:24:55;5.45;;;2.40;;
22026;SDS011;11177;50.966;10.070;2023-01-10T01:27:22;4.72;;;2.40;;
22026;SDS011;11177;50.966;10.070;2023-01-10T01:29:49;3.65;;;2.17;;
22026;SDS011;11177;50.966;10.070;2023-01-10T01:32:16;3.53;;;2.22;;
22026;SDS011;11177;50.966;10.070;2023-01-10T01:34:43;5.72;;;2.47;;
22026;SDS011;11177;50.966;10.070;2023-01-10T01:37:10;4.95;;;2.70;;
22026;SDS011;11177;50.966;10.070;2023-01-10T01:39:36;6.95;;;2.33;;
22026;SDS011;11177;50.966;10.070;2023-01-10T01:42:04;4.00;;;2.22;;
22026;SDS011;11177;50.966;10.070;2023-01-10T01:44:32;3.70;;;2.20;;
22026;SDS011;11177;50.966;10.070;2023-01-10T01:49:37;4.20;;;2.40;;
22026;SDS011;11177;50.966;10.070;2023-01-10T01:52:07;4.97;;;2.20;;
22026;SDS011;11177;50.966;10.070;2023-01-10T01:54:37;2.60;;;2.10;;
22026;SDS011;11177;50.966;10.070;2023-01-10T01:57:05;5.78;;;2.13;;
22026;SDS011;11177;50.966;10.070;2023-01-10T01:59:37;4.90;;;2.50;;
22026;SDS011;11177;50.966;10.070;2023-01-10T02:02:07;5.32;;;2.28;;
22026;SDS011;11177;50.966;10.070;2023-01-10T02:04:40;4.07;;;2.40;;
22026;SDS011;11177;50.966;10.070;2023-01-10T02:07:10;4.68;;;2.00;;
22026;SDS011;11177;50.966;10.070;2023-01-10T02:12:25;7.60;;;2.30;;
22026;SDS011;11177;50.966;10.070;2023-01-10T02:14:53;2.67;;;2.17;;
22026;SDS011;11177;50.966;10.070;2023-01-10T02:17:20;4.05;;;2.10;;
22026;SDS011;11177;50.966;10.070;2023-01-10T02:19:50;5.65;;;2.00;;
22026;SDS011;11177;50.966;10.070;2023-01-10T02:34:01;6.03;;;1.90;;
22026;SDS011;11177;50.966;10.070;2023-01-10T02:36:43;2.35;;;1.90;;
22026;SDS011;11177;50.966;10.070;2023-01-10T02:39:38;4.67;;;2.03;;
22026;SDS011;11177;50.966;10.070;2023-01-10T02:42:16;5.20;;;2.17;;
22026;SDS011;11177;50.966;10.070;2023-01-10T02:47:33;4.38;;;2.20;;
22026;SDS011;11177;50.966;10.070;2023-01-10T02:50:15;4.53;;;2.25;;
22026;SDS011;11177;50.966;10.070;2023-01-10T02:53:15;3.92;;;2.08;;
22026;SDS011;11177;50.966;10.070;2023-01-10T02:55:58;4.80;;;2.08;;
22026;SDS011;11177;50.966;10.070;2023-01-10T03:01:58;5.90;;;2.03;;
22026;SDS011;11177;50.966;10.070;2023-01-10T03:07:52;2.10;;;1.80;;
22026;SDS011;11177;50.966;10.070;2023-01-10T03:10:47;3.55;;;2.10;;
22026;SDS011;11177;50.966;10.070;2023-01-10T03:16:20;6.28;;;2.50;;
22026;SDS011;11177;50.966;10.070;2023-01-10T03:18:53;3.53;;;2.20;;
22026;SDS011;11177;50.966;10.070;2023-01-10T03:21:23;4.45;;;2.30;;
22026;SDS011;11177;50.966;10.070;2023-01-10T03:23:51;2.90;;;2.17;;
22026;SDS011;11177;50.966;10.070;2023-01-10T03:26:21;5.25;;;2.30;;
22026;SDS011;11177;50.966;10.070;2023-01-10T03:28:54;6.43;;;2.40;;
22026;SDS011;11177;50.966;10.070;2023-01-10T03:31:38;5.22;;;2.28;;
22026;SDS011;11177;50.966;10.070;2023-01-10T03:34:07;7.27;;;2.37;;
22026;SDS011;11177;50.966;10.070;2023-01-10T03:42:35;6.15;;;2.70;;
22026;SDS011;11177;50.966;10.070;2023-01-10T03:45:33;5.47;;;2.45;;
22026;SDS011;11177;50.966;10.070;2023-01-10T03:48:06;3.13;;;2.05;;
22026;SDS011;11177;50.966;10.070;2023-01-10T03:50:33;7.63;;;2.38;;
22026;SDS011;11177;50.966;10.070;2023-01-10T03:53:01;4.18;;;2.33;;
22026;SDS011;11177;50.966;10.070;2023-01-10T03:55:28;4.82;;;2.38;;
22026;SDS011;11177;50.966;10.070;2023-01-10T03:57:55;3.95;;;2.55;;
22026;SDS011;11177;50.966;10.070;2023-01-10T04:00:22;4.00;;;2.30;;
22026;SDS011;11177;50.966;10.070;2023-01-10T04:02:49;4.90;;;2.35;;
22026;SDS011;11177;50.966;10.070;2023-01-10T04:05:16;6.40;;;2.63;;
22026;SDS011;11177;50.966;10.070;2023-01-10T04:07:43;4.63;;;2.50;;
22026;SDS011;11177;50.966;10.070;2023-01-10T04:10:10;6.10;;;3.40;;
22026;SDS011;11177;50.966;10.070;2023-01-10T04:12:36;3.08;;;2.40;;
22026;SDS011;11177;50.966;10.070;2023-01-10T04:15:03;5.35;;;2.67;;
22026;SDS011;11177;50.966;10.070;2023-01-10T04:17:30;7.53;;;2.78;;
22026;SDS011;11177;50.966;10.070;2023-01-10T04:19:58;6.30;;;2.45;;
22026;SDS011;11177;50.966;10.070;2023-01-10T04:22:25;7.45;;;2.65;;
22026;SDS011;11177;50.966;10.070;2023-01-10T04:24:51;4.18;;;2.50;;
22026;SDS011;11177;50.966;10.070;2023-01-10T04:27:19;7.25;;;2.65;;
22026;SDS011;11177;50.966;10.070;2023-01-10T04:29:47;4.63;;;2.78;;
22026;SDS011;11177;50.966;10.070;2023-01-10T04:32:13;6.28;;;2.85;;
22026;SDS011;11177;50.966;10.070;2023-01-10T04:34:40;6.63;;;2.90;;
22026;SDS011;11177;50.966;10.070;2023-01-10T04:37:07;6.75;;;3.25;;
22026;SDS011;11177;50.966;10.070;2023-01-10T04:39:34;7.82;;;2.88;;
22026;SDS011;11177;50.966;10.070;2023-01-10T04:42:00;5.35;;;2.83;;
22026;SDS011;11177;50.966;10.070;2023-01-10T04:44:27;4.20;;;2.83;;
22026;SDS011;11177;50.966;10.070;2023-01-10T04:46:54;5.53;;;3.17;;
22026;SDS011;11177;50.966;10.070;2023-01-10T04:49:20;3.60;;;2.45;;
22026;SDS011;11177;50.966;10.070;2023-01-10T04:51:47;5.82;;;2.92;;
22026;SDS011;11177;50.966;10.070;2023-01-10T04:54:14;8.43;;;2.90;;
22026;SDS011;11177;50.966;10.070;2023-01-10T04:56:40;6.50;;;2.85;;
22026;SDS011;11177;50.966;10.070;2023-01-10T04:59:08;5.68;;;3.20;;
22026;SDS011;11177;50.966;10.070;2023-01-10T05:01:35;6.15;;;2.80;;
22026;SDS011;11177;50.966;10.070;2023-01-10T05:04:04;7.15;;;2.60;;
22026;SDS011;11177;50.966;10.070;2023-01-10T05:06:32;7.15;;;2.95;;
22026;SDS011;11177;50.966;10.070;2023-01-10T05:08:58;6.85;;;2.75;;
22026;SDS011;11177;50.966;10.070;2023-01-10T05:11:25;6.85;;;2.85;;
22026;SDS011;11177;50.966;10.070;2023-01-10T05:13:52;4.85;;;2.70;;
22026;SDS011;11177;50.966;10.070;2023-01-10T05:16:19;4.82;;;2.75;;
22026;SDS011;11177;50.966;10.070;2023-01-10T05:18:46;7.75;;;3.10;;
22026;SDS011;11177;50.966;10.070;2023-01-10T05:21:13;6.07;;;2.50;;
22026;SDS011;11177;50.966;10.070;2023-01-10T05:23:41;6.93;;;2.97;;
22026;SDS011;11177;50.966;10.070;2023-01-10T05:26:09;5.75;;;2.80;;
22026;SDS011;11177;50.966;10.070;2023-01-10T05:28:37;6.80;;;2.97;;
22026;SDS011;11177;50.966;10.070;2023-01-10T05:31:07;5.85;;;2.90;;
22026;SDS011;11177;50.966;10.070;2023-01-10T05:33:35;11.82;;;3.20;;
22026;SDS011;11177;50.966;10.070;2023-01-10T05:36:03;11.23;;;3.08;;
22026;SDS011;11177;50.966;10.070;2023-01-10T05:38:30;8.02;;;3.28;;
22026;SDS011;11177;50.966;10.070;2023-01-10T05:40:58;5.63;;;3.05;;
22026;SDS011;11177;50.966;10.070;2023-01-10T05:43:26;7.05;;;3.17;;
22026;SDS011;11177;50.966;10.070;2023-01-10T05:45:53;8.52;;;3.00;;
22026;SDS011;11177;50.966;10.070;2023-01-10T05:48:20;7.82;;;3.03;;
22026;SDS011;11177;50.966;10.070;2023-01-10T05:50:50;6.82;;;3.47;;
22026;SDS011;11177;50.966;10.070;2023-01-10T05:53:18;6.05;;;3.67;;
22026;SDS011;11177;50.966;10.070;2023-01-10T05:55:55;13.43;;;4.45;;
22026;SDS011;11177;50.966;10.070;2023-01-10T05:58:22;7.85;;;4.32;;
22026;SDS011;11177;50.966;10.070;2023-01-10T06:00:49;7.75;;;4.45;;
22026;SDS011;11177;50.966;10.070;2023-01-10T06:03:16;10.75;;;4.57;;
22026;SDS011;11177;50.966;10.070;2023-01-10T06:05:43;9.80;;;4.22;;
22026;SDS011;11177;50.966;10.070;2023-01-10T06:08:14;7.72;;;3.67;;
22026;SDS011;11177;50.966;10.070;2023-01-10T06:10:41;8.25;;;4.00;;
22026;SDS011;11177;50.966;10.070;2023-01-10T06:13:08;8.55;;;3.83;;
22026;SDS011;11177;50.966;10.070;2023-01-10T06:15:35;9.23;;;4.07;;
22026;SDS011;11177;50.966;10.070;2023-01-10T06:18:02;11.05;;;4.10;;
22026;SDS011;11177;50.966;10.070;2023-01-10T06:20:29;10.80;;;4.13;;
22026;SDS011;11177;50.966;10.070;2023-01-10T06:22:56;14.15;;;5.00;;
22026;SDS011;11177;50.966;10.070;2023-01-10T06:25:24;10.75;;;4.65;;
22026;SDS011;11177;50.966;10.070;2023-01-10T06:27:51;10.90;;;4.53;;
22026;SDS011;11177;50.966;10.070;2023-01-10T06:30:18;10.65;;;4.82;;
22026;SDS011;11177;50.966;10.070;2023-01-10T06:32:45;12.43;;;4.40;;
22026;SDS011;11177;50.966;10.070;2023-01-10T06:35:12;12.15;;;5.20;;
22026;SDS011;11177;50.966;10.070;2023-01-10T06:37:39;7.85;;;4.45;;
22026;SDS011;11177;50.966;10.070;2023-01-10T06:40:06;11.13;;;5.45;;
22026;SDS011;11177;50.966;10.070;2023-01-10T06:42:33;10.40;;;5.25;;
22026;SDS011;11177;50.966;10.070;2023-01-10T06:45:00;10.40;;;5.20;;
22026;SDS011;11177;50.966;10.070;2023-01-10T06:47:27;8.65;;;3.90;;
22026;SDS011;11177;50.966;10.070;2023-01-10T06:49:53;11.50;;;4.07;;
22026;SDS011;11177;50.966;10.070;2023-01-10T06:52:20;10.60;;;3.80;;
22026;SDS011;11177;50.966;10.070;2023-01-10T06:54:47;7.93;;;3.63;;
22026;SDS011;11177;50.966;10.070;2023-01-10T06:57:14;9.18;;;3.78;;
22026;SDS011;11177;50.966;10.070;2023-01-10T06:59:41;5.97;;;3.58;;
22026;SDS011;11177;50.966;10.070;2023-01-10T07:02:13;7.65;;;3.63;;
22026;SDS011;11177;50.966;10.070;2023-01-10T07:04:40;7.95;;;3.47;;
22026;SDS011;11177;50.966;10.070;2023-01-10T07:07:07;8.68;;;3.67;;
22026;SDS011;11177;50.966;10.070;2023-01-10T07:09:34;10.15;;;3.88;;
22026;SDS011;11177;50.966;10.070;2023-01-10T07:12:00;11.82;;;4.10;;
22026;SDS011;11177;50.966;10.070;2023-01-10T07:14:27;10.10;;;3.72;;
22026;SDS011;11177;50.966;10.070;2023-01-10T07:16:54;7.53;;;3.75;;
22026;SDS011;11177;50.966;10.070;2023-01-10T07:19:21;9.80;;;4.25;;
22026;SDS011;11177;50.966;10.070;2023-01-10T07:21:47;10.50;;;3.92;;
22026;SDS011;11177;50.966;10.070;2023-01-10T07:24:14;10.73;;;3.90;;
22026;SDS011;11177;50.966;10.070;2023-01-10T07:26:41;9.57;;;4.22;;
22026;SDS011;11177;50.966;10.070;2023-01-10T07:29:08;10.48;;;4.47;;
22026;SDS011;11177;50.966;10.070;2023-01-10T07:31:34;11.27;;;4.38;;
22026;SDS011;11177;50.966;10.070;2023-01-10T07:34:01;10.85;;;4.25;;
22026;SDS011;11177;50.966;10.070;2023-01-10T07:36:28;8.63;;;4.72;;
22026;SDS011;11177;50.966;10.070;2023-01-10T07:38:55;13.07;;;4.70;;
22026;SDS011;11177;50.966;10.070;2023-01-10T07:41:22;9.30;;;4.63;;
22026;SDS011;11177;50.966;10.070;2023-01-10T07:43:48;9.40;;;5.00;;
22026;SDS011;11177;50.966;10.070;2023-01-10T07:46:15;12.65;;;5.60;;
22026;SDS011;11177;50.966;10.070;2023-01-10T07:48:42;12.32;;;5.40;;
22026;SDS011;11177;50.966;10.070;2023-01-10T07:51:10;9.77;;;4.47;;
22026;SDS011;11177;50.966;10.070;2023-01-10T07:53:37;13.23;;;5.53;;
22026;SDS011;11177;50.966;10.070;2023-01-10T07:56:04;10.00;;;4.88;;
22026;SDS011;11177;50.966;10.070;2023-01-10T07:58:31;10.10;;;4.45;;
22026;SDS011;11177;50.966;10.070;2023-01-10T08:00:59;10.50;;;4.35;;
22026;SDS011;11177;50.966;10.070;2023-01-10T08:03:26;8.32;;;4.57;;
22026;SDS011;11177;50.966;10.070;2023-01-10T08:05:58;9.88;;;4.80;;
22026;SDS011;11177;50.966;10.070;2023-01-10T08:08:25;12.07;;;5.10;;
22026;SDS011;11177;50.966;10.070;2023-01-10T08:10:52;14.25;;;4.85;;
22026;SDS011;11177;50.966;10.070;2023-01-10T08:13:19;10.18;;;4.95;;
22026;SDS011;11177;50.966;10.070;2023-01-10T08:15:46;10.90;;;5.40;;
22026;SDS011;11177;50.966;10.070;2023-01-10T08:18:15;12.20;;;5.30;;
22026;SDS011;11177;50.966;10.070;2023-01-10T08:20:42;14.48;;;5.72;;
22026;SDS011;11177;50.966;10.070;2023-01-10T08:23:09;15.32;;;5.82;;
22026;SDS011;11177;50.966;10.070;2023-01-10T08:25:36;12.93;;;6.43;;
22026;SDS011;11177;50.966;10.070;2023-01-10T08:28:04;11.43;;;5.90;;
22026;SDS011;11177;50.966;10.070;2023-01-10T08:30:31;8.98;;;6.00;;
22026;SDS011;11177;50.966;10.070;2023-01-10T08:33:00;13.38;;;6.28;;
22026;SDS011;11177;50.966;10.070;2023-01-10T08:35:28;12.93;;;6.00;;
22026;SDS011;11177;50.966;10.070;2023-01-10T08:37:58;13.90;;;6.55;;
22026;SDS011;11177;50.966;10.070;2023-01-10T08:40:25;10.45;;;5.90;;
22026;SDS011;11177;50.966;10.070;2023-01-10T08:42:59;10.60;;;5.30;;
22026;SDS011;11177;50.966;10.070;2023-01-10T08:47:53;11.93;;;5.28;;
22026;SDS011;11177;50.966;10.070;2023-01-10T08:50:20;11.27;;;5.20;;
22026;SDS011;11177;50.966;10.070;2023-01-10T08:52:47;10.88;;;5.18;;
22026;SDS011;11177;50.966;10.070;2023-01-10T08:55:14;16.45;;;5.90;;
22026;SDS011;11177;50.966;10.070;2023-01-10T08:57:42;12.90;;;5.70;;
22026;SDS011;11177;50.966;10.070;2023-01-10T09:00:09;10.52;;;4.97;;
22026;SDS011;11177;50.966;10.070;2023-01-10T09:02:38;10.40;;;5.00;;
22026;SDS011;11177;50.966;10.070;2023-01-10T09:05:05;12.55;;;5.30;;
22026;SDS011;11177;50.966;10.070;2023-01-10T09:07:47;11.82;;;5.20;;
22026;SDS011;11177;50.966;10.070;2023-01-10T09:10:14;10.63;;;4.72;;
22026;SDS011;11177;50.966;10.070;2023-01-10T09:12:41;12.05;;;5.03;;
22026;SDS011;11177;50.966;10.070;2023-01-10T09:15:20;12.95;;;4.53;;
22026;SDS011;11177;50.966;10.070;2023-01-10T09:17:48;9.57;;;4.50;;
22026;SDS011;11177;50.966;10.070;2023-01-10T09:20:17;12.05;;;5.80;;
22026;SDS011;11177;50.966;10.070;2023-01-10T09:22:44;15.73;;;6.45;;
22026;SDS011;11177;50.966;10.070;2023-01-10T09:25:11;24.08;;;9.70;;
22026;SDS011;11177;50.966;10.070;2023-01-10T09:27:37;16.25;;;5.38;;
22026;SDS011;11177;50.966;10.070;2023-01-10T09:30:04;10.07;;;3.60;;
22026;SDS011;11177;50.966;10.070;2023-01-10T09:32:32;8.38;;;3.17;;
22026;SDS011;11177;50.966;10.070;2023-01-10T09:34:59;10.23;;;3.97;;
22026;SDS011;11177;50.966;10.070;2023-01-10T09:37:26;9.35;;;3.30;;
22026;SDS011;11177;50.966;10.070;2023-01-10T09:39:52;13.65;;;3.42;;
22026;SDS011;11177;50.966;10.070;2023-01-10T09:42:29;9.27;;;2.85;;
22026;SDS011;11177;50.966;10.070;2023-01-10T09:47:52;7.53;;;2.83;;
22026;SDS011;11177;50.966;10.070;2023-01-10T09:50:33;8.65;;;3.10;;
22026;SDS011;11177;50.966;10.070;2023-01-10T09:53:20;17.08;;;3.42;;
22026;SDS011;11177;50.966;10.070;2023-01-10T09:55:58;11.73;;;3.17;;
22026;SDS011;11177;50.966;10.070;2023-01-10T09:58:26;9.38;;;2.88;;
22026;SDS011;11177;50.966;10.070;2023-01-10T10:00:56;10.15;;;3.20;;
22026;SDS011;11177;50.966;10.070;2023-01-10T10:03:27;10.13;;;2.97;;
22026;SDS011;11177;50.966;10.070;2023-01-10T10:05:58;10.43;;;3.13;;
22026;SDS011;11177;50.966;10.070;2023-01-10T10:08:40;10.88;;;2.50;;
22026;SDS011;11177;50.966;10.070;2023-01-10T10:17:22;11.20;;;2.65;;
22026;SDS011;11177;50.966;10.070;2023-01-10T10:20:03;9.18;;;2.78;;
22026;SDS011;11177;50.966;10.070;2023-01-10T10:23:00;13.73;;;3.13;;
22026;SDS011;11177;50.966;10.070;2023-01-10T10:25:41;5.82;;;3.33;;
22026;SDS011;11177;50.966;10.070;2023-01-10T10:31:29;10.85;;;2.78;;
22026;SDS011;11177;50.966;10.070;2023-01-10T10:34:22;10.23;;;2.60;;
22026;SDS011;11177;50.966;10.070;2023-01-10T10:36:52;8.98;;;2.50;;
22026;SDS011;11177;50.966;10.070;2023-01-10T10:39:23;9.00;;;2.67;;
22026;SDS011;11177;50.966;10.070;2023-01-10T10:41:58;10.80;;;2.47;;
22026;SDS011;11177;50.966;10.070;2023-01-10T10:44:36;6.38;;;2.08;;
22026;SDS011;11177;50.966;10.070;2023-01-10T10:47:11;6.55;;;1.88;;
22026;SDS011;11177;50.966;10.070;2023-01-10T10:52:14;10.45;;;2.17;;
22026;SDS011;11177;50.966;10.070;2023-01-10T10:54:45;9.75;;;1.73;;
22026;SDS011;11177;50.966;10.070;2023-01-10T10:57:13;12.35;;;2.28;;
22026;SDS011;11177;50.966;10.070;2023-01-10T10:59:40;7.28;;;2.10;;
22026;SDS011;11177;50.966;10.070;2023-01-10T11:02:18;8.18;;;2.03;;
22026;SDS011;11177;50.966;10.070;2023-01-10T11:04:51;8.40;;;2.50;;
22026;SDS011;11177;50.966;10.070;2023-01-10T11:07:21;8.88;;;2.33;;
22026;SDS011;11177;50.966;10.070;2023-01-10T11:09:48;10.88;;;2.10;;
22026;SDS011;11177;50.966;10.070;2023-01-10T11:12:34;9.40;;;2.13;;
22026;SDS011;11177;50.966;10.070;2023-01-10T11:15:01;10.32;;;2.08;;
22026;SDS011;11177;50.966;10.070;2023-01-10T11:17:30;11.60;;;2.30;;
22026;SDS011;11177;50.966;10.070;2023-01-10T11:22:26;9.88;;;2.65;;
22026;SDS011;11177;50.966;10.070;2023-01-10T11:24:58;10.10;;;2.22;;
22026;SDS011;11177;50.966;10.070;2023-01-10T11:27:30;11.85;;;2.42;;
22026;SDS011;11177;50.966;10.070;2023-01-10T11:30:02;7.85;;;2.50;;
22026;SDS011;11177;50.966;10.070;2023-01-10T11:32:33;9.93;;;2.85;;
22026;SDS011;11177;50.966;10.070;2023-01-10T11:35:06;11.55;;;2.80;;
22026;SDS011;11177;50.966;10.070;2023-01-10T11:37:41;8.55;;;2.20;;
22026;SDS011;11177;50.966;10.070;2023-01-10T11:40:13;17.70;;;3.50;;
22026;SDS011;11177;50.966;10.070;2023-01-10T11:42:43;14.82;;;2.60;;
22026;SDS011;11177;50.966;10.070;2023-01-10T11:45:18;14.77;;;3.05;;
22026;SDS011;11177;50.966;10.070;2023-01-10T11:47:52;9.82;;;2.60;;
22026;SDS011;11177;50.966;10.070;2023-01-10T11:50:32;14.15;;;3.08;;
22026;SDS011;11177;50.966;10.070;2023-01-10T11:53:01;10.35;;;2.90;;
22026;SDS011;11177;50.966;10.070;2023-01-10T11:55:30;9.25;;;3.13;;
22026;SDS011;11177;50.966;10.070;2023-01-10T11:58:00;11.00;;;2.42;;
22026;SDS011;11177;50.966;10.070;2023-01-10T12:00:30;11.70;;;2.47;;
22026;SDS011;11177;50.966;10.070;2023-01-10T12:02:59;14.57;;;2.78;;
22026;SDS011;11177;50.966;10.070;2023-01-10T12:05:26;9.63;;;2.40;;
22026;SDS011;11177;50.966;10.070;2023-01-10T12:08:03;11.48;;;2.53;;
22026;SDS011;11177;50.966;10.070;2023-01-10T12:10:32;9.20;;;2.20;;
22026;SDS011;11177;50.966;10.070;2023-01-10T12:13:08;9.30;;;2.58;;
22026;SDS011;11177;50.966;10.070;2023-01-10T12:15:39;9.50;;;2.15;;
22026;SDS011;11177;50.966;10.070;2023-01-10T12:18:06;11.13;;;2.00;;
22026;SDS011;11177;50.966;10.070;2023-01-10T12:20:54;13.45;;;2.70;;
22026;SDS011;11177;50.966;10.070;2023-01-10T12:23:23;6.72;;;2.05;;
22026;SDS011;11177;50.966;10.070;2023-01-10T12:25:51;10.05;;;2.20;;
22026;SDS011;11177;50.966;10.070;2023-01-10T12:28:32;8.95;;;2.20;;
22026;SDS011;11177;50.966;10.070;2023-01-10T12:30:59;14.65;;;2.75;;
22026;SDS011;11177;50.966;10.070;2023-01-10T12:33:34;10.15;;;2.25;;
22026;SDS011;11177;50.966;10.070;2023-01-10T12:36:12;9.13;;;2.03;;
22026;SDS011;11177;50.966;10.070;2023-01-10T12:38:41;12.85;;;2.47;;
22026;SDS011;11177;50.966;10.070;2023-01-10T12:42:18;11.65;;;2.40;;
22026;SDS011;11177;50.966;10.070;2023-01-10T12:44:44;8.07;;;2.10;;
22026;SDS011;11177;50.966;10.070;2023-01-10T12:47:27;13.68;;;2.38;;
22026;SDS011;11177;50.966;10.070;2023-01-10T12:52:36;13.80;;;2.15;;
22026;SDS011;11177;50.966;10.070;2023-01-10T12:55:11;9.50;;;1.95;;
22026;SDS011;11177;50.966;10.070;2023-01-10T12:57:43;11.68;;;2.47;;
22026;SDS011;11177;50.966;10.070;2023-01-10T13:00:23;11.20;;;2.88;;
22026;SDS011;11177;50.966;10.070;2023-01-10T13:02:56;12.55;;;2.00;;
22026;SDS011;11177;50.966;10.070;2023-01-10T13:05:26;11.35;;;2.80;;
22026;SDS011;11177;50.966;10.070;2023-01-10T13:07:59;15.23;;;2.90;;
22026;SDS011;11177;50.966;10.070;2023-01-10T13:10:30;11.55;;;3.03;;
22026;SDS011;11177;50.966;10.070;2023-01-10T13:13:10;16.73;;;3.20;;
22026;SDS011;11177;50.966;10.070;2023-01-10T13:15:43;15.90;;;4.03;;
22026;SDS011;11177;50.966;10.070;2023-01-10T13:18:16;20.48;;;7.43;;
22026;SDS011;11177;50.966;10.070;2023-01-10T13:23:22;14.88;;;3.15;;
22026;SDS011;11177;50.966;10.070;2023-01-10T13:25:57;11.95;;;2.60;;
22026;SDS011;11177;50.966;10.070;2023-01-10T13:28:31;11.45;;;2.35;;
22026;SDS011;11177;50.966;10.070;2023-01-10T13:31:00;14.18;;;3.08;;
22026;SDS011;11177;50.966;10.070;2023-01-10T13:33:29;8.98;;;2.35;;
22026;SDS011;11177;50.966;10.070;2023-01-10T13:36:08;11.32;;;2.20;;
22026;SDS011;11177;50.966;10.070;2023-01-10T13:38:43;10.27;;;2.30;;
22026;SDS011;11177;50.966;10.070;2023-01-10T13:41:14;11.50;;;2.17;;
22026;SDS011;11177;50.966;10.070;2023-01-10T13:44:01;10.00;;;1.85;;
22026;SDS011;11177;50.966;10.070;2023-01-10T13:46:33;10.70;;;2.38;;
22026;SDS011;11177;50.966;10.070;2023-01-10T13:58:03;8.90;;;2.10;;
22026;SDS011;11177;50.966;10.070;2023-01-10T14:03:52;8.68;;;2.33;;
22026;SDS011;11177;50.966;10.070;2023-01-10T14:09:30;10.95;;;2.60;;
22026;SDS011;11177;50.966;10.070;2023-01-10T14:12:21;10.90;;;2.08;;
22026;SDS011;11177;50.966;10.070;2023-01-10T14:14:55;11.93;;;3.08;;
22026;SDS011;11177;50.966;10.070;2023-01-10T14:17:24;10.98;;;2.20;;
22026;SDS011;11177;50.966;10.070;2023-01-10T14:20:36;10.63;;;1.90;;
22026;SDS011;11177;50.966;10.070;2023-01-10T14:23:00;10.73;;;2.15;;
22026;SDS011;11177;50.966;10.070;2023-01-10T14:25:31;12.23;;;2.30;;
22026;SDS011;11177;50.966;10.070;2023-01-10T14:27:59;9.73;;;1.80;;
22026;SDS011;11177;50.966;10.070;2023-01-10T14:30:30;8.23;;;1.95;;
22026;SDS011;11177;50.966;10.070;2023-01-10T14:33:00;10.30;;;1.90;;
22026;SDS011;11177;50.966;10.070;2023-01-10T14:35:35;9.23;;;2.03;;
22026;SDS011;11177;50.966;10.070;2023-01-10T14:40:45;12.18;;;2.15;;
22026;SDS011;11177;50.966;10.070;2023-01-10T14:43:14;12.45;;;2.35;;
22026;SDS011;11177;50.966;10.070;2023-01-10T14:45:48;11.25;;;2.08;;
22026;SDS011;11177;50.966;10.070;2023-01-10T14:48:40;9.30;;;2.33;;
22026;SDS011;11177;50.966;10.070;2023-01-10T14:53:55;13.38;;;3.05;;
22026;SDS011;11177;50.966;10.070;2023-01-10T14:56:35;10.13;;;2.53;;
22026;SDS011;11177;50.966;10.070;2023-01-10T15:02:00;10.95;;;2.65;;
22026;SDS011;11177;50.966;10.070;2023-01-10T15:04:30;10.50;;;2.67;;
22026;SDS011;11177;50.966;10.070;2023-01-10T15:07:00;12.05;;;2.65;;
22026;SDS011;11177;50.966;10.070;2023-01-10T15:09:37;9.63;;;2.25;;
22026;SDS011;11177;50.966;10.070;2023-01-10T15:12:05;8.52;;;2.28;;
22026;SDS011;11177;50.966;10.070;2023-01-10T15:14:33;11.40;;;2.65;;
22026;SDS011;11177;50.966;10.070;2023-01-10T15:17:03;13.35;;;3.00;;
22026;SDS011;11177;50.966;10.070;2023-01-10T15:19:33;18.52;;;3.25;;
22026;SDS011;11177;50.966;10.070;2023-01-10T15:22:01;12.18;;;2.92;;
22026;SDS011;11177;50.966;10.070;2023-01-10T15:26:59;17.33;;;3.55;;
22026;SDS011;11177;50.966;10.070;2023-01-10T15:29:34;9.45;;;3.22;;
22026;SDS011;11177;50.966;10.070;2023-01-10T15:32:06;12.02;;;3.15;;
22026;SDS011;11177;50.966;10.070;2023-01-10T15:34:41;13.07;;;2.97;;
22026;SDS011;11177;50.966;10.070;2023-01-10T15:37:11;13.68;;;2.97;;
22026;SDS011;11177;50.966;10.070;2023-01-10T15:39:45;12.45;;;2.60;;
22026;SDS011;11177;50.966;10.070;2023-01-10T15:42:12;12.32;;;2.50;;
22026;SDS011;11177;50.966;10.070;2023-01-10T15:44:43;13.18;;;2.60;;
22026;SDS011;11177;50.966;10.070;2023-01-10T15:47:37;10.93;;;3.00;;
22026;SDS011;11177;50.966;10.070;2023-01-10T15:53:09;11.80;;;3.00;;
22026;SDS011;11177;50.966;10.070;2023-01-10T15:55:42;17.05;;;3.20;;
22026;SDS011;11177;50.966;10.070;2023-01-10T15:58:18;12.93;;;3.67;;
22026;SDS011;11177;50.966;10.070;2023-01-10T16:00:49;16.27;;;4.38;;
22026;SDS011;11177;50.966;10.070;2023-01-10T16:06:37;12.55;;;3.13;;
22026;SDS011;11177;50.966;10.070;2023-01-10T16:09:04;12.13;;;3.17;;
22026;SDS011;11177;50.966;10.070;2023-01-10T16:11:46;18.10;;;4.05;;
22026;SDS011;11177;50.966;10.070;2023-01-10T16:14:32;14.20;;;4.22;;
22026;SDS011;11177;50.966;10.070;2023-01-10T16:16:59;15.02;;;4.70;;
22026;SDS011;11177;50.966;10.070;2023-01-10T16:19:26;14.13;;;4.20;;
22026;SDS011;11177;50.966;10.070;2023-01-10T16:21:54;13.40;;;3.58;;